createdAt,value
2023-03-29T00:03:44.296Z,44.40
2023-03-29T00:06:50.604Z,47.71
2023-03-29T00:09:56.446Z,50.01
2023-03-29T00:13:02.530Z,51.36
2023-03-29T00:16:09.095Z,52.38
2023-03-29T00:19:14.846Z,53.15
2023-03-29T00:22:20.615Z,53.56
2023-03-29T00:25:26.257Z,53.27
2023-03-29T00:28:32.272Z,52.84
2023-03-29T00:31:38.035Z,52.61
2023-03-29T00:34:46.057Z,54.25
2023-03-29T00:37:53.101Z,65.86
2023-03-29T00:40:58.735Z,66.52
2023-03-29T00:44:05.983Z,62.62
2023-03-29T00:47:11.642Z,59.83
2023-03-29T00:50:22.388Z,57.55
2023-03-29T00:53:30.358Z,55.26
2023-03-29T00:56:38.755Z,52.72
2023-03-29T00:59:45.176Z,51.55
2023-03-29T01:02:55.354Z,49.56
2023-03-29T01:06:04.169Z,48.18
2023-03-29T01:09:10.995Z,48.68
2023-03-29T01:12:18.559Z,47.67
2023-03-29T01:15:28.910Z,47.06
2023-03-29T01:18:55.434Z,46.30
2023-03-29T01:22:32.263Z,46.57
2023-03-29T01:26:03.136Z,45.76
2023-03-29T01:29:33.266Z,45.52
2023-03-29T01:33:02.032Z,46.23
2023-03-29T01:36:30.908Z,45.92
2023-03-29T01:39:47.318Z,46.08
2023-03-29T01:43:18.992Z,46.48
2023-03-29T01:46:47.464Z,46.16
2023-03-29T01:50:16.203Z,46.05
2023-03-29T01:53:45.294Z,46.39
2023-03-29T01:57:11.919Z,46.77
2023-03-29T02:00:40.089Z,46.80
2023-03-29T02:04:08.162Z,46.04
2023-03-29T02:07:37.496Z,46.21
2023-03-29T02:11:04.782Z,46.75
2023-03-29T02:14:30.888Z,46.27
2023-03-29T02:17:57.456Z,45.79
2023-03-29T02:21:03.984Z,45.40
2023-03-29T02:24:12.148Z,44.98
2023-03-29T02:27:18.517Z,45.03
2023-03-29T02:30:28.938Z,45.25
2023-03-29T02:33:39.683Z,45.17
2023-03-29T02:36:48.088Z,45.26
2023-03-29T02:39:54.745Z,44.29
2023-03-29T02:43:01.753Z,44.01
2023-03-29T02:46:09.230Z,44.02
2023-03-29T02:49:17.553Z,44.12
2023-03-29T02:52:26.893Z,43.84
2023-03-29T02:55:36.455Z,43.50
2023-03-29T02:58:41.735Z,43.42
2023-03-29T03:01:47.605Z,43.52
2023-03-29T03:04:53.773Z,43.55
2023-03-29T03:07:59.768Z,43.65
2023-03-29T03:11:05.426Z,43.99
2023-03-29T03:14:11.185Z,44.35
2023-03-29T03:17:18.858Z,44.51
2023-03-29T03:20:27.146Z,43.70
2023-03-29T03:23:33.649Z,43.48
2023-03-29T03:26:41.643Z,43.60
2023-03-29T03:29:50.853Z,42.82
2023-03-29T03:32:56.846Z,43.04
2023-03-29T03:36:34.880Z,42.99
2023-03-29T03:39:40.933Z,42.63
2023-03-29T03:42:48.280Z,42.57
2023-03-29T03:45:54.051Z,42.31
2023-03-29T03:49:02.565Z,42.19
2023-03-29T03:52:11.222Z,42.27
2023-03-29T03:55:17.293Z,41.31
2023-03-29T03:58:30.561Z,40.86
2023-03-29T04:01:38.247Z,43.64
2023-03-29T04:04:50.840Z,45.41
2023-03-29T04:07:58.237Z,44.62
2023-03-29T04:11:24.681Z,44.05
2023-03-29T04:14:32.302Z,43.43
2023-03-29T04:17:43.326Z,43.20
2023-03-29T04:20:59.270Z,43.81
2023-03-29T04:24:25.735Z,45.77
2023-03-29T04:27:54.273Z,47.78
2023-03-29T04:31:20.429Z,53.10
2023-03-29T04:34:44.758Z,58.12
2023-03-29T04:38:12.986Z,61.95
2023-03-29T04:41:39.692Z,63.73
2023-03-29T04:45:07.473Z,63.99
2023-03-29T04:48:33.599Z,64.89
2023-03-29T04:52:01.155Z,60.43
2023-03-29T04:55:27.135Z,53.68
2023-03-29T04:58:58.831Z,51.59
2023-03-29T05:02:24.831Z,48.32
2023-03-29T05:05:51.312Z,47.94
2023-03-29T05:09:17.717Z,50.69
2023-03-29T05:12:43.708Z,58.12
2023-03-29T05:16:11.332Z,56.19
2023-03-29T05:19:38.457Z,55.85
2023-03-29T05:23:04.286Z,55.68
2023-03-29T05:26:40.226Z,55.25
2023-03-29T05:29:46.715Z,57.10
2023-03-29T05:33:06.568Z,55.60
2023-03-29T05:36:13.726Z,55.74
2023-03-29T05:39:23.555Z,58.10
2023-03-29T05:42:29.484Z,57.84
2023-03-29T05:45:44.115Z,58.50
2023-03-29T05:48:49.658Z,62.94
2023-03-29T05:51:57.282Z,65.65
2023-03-29T05:55:04.493Z,62.50
2023-03-29T05:58:10.466Z,55.58
2023-03-29T06:01:19.098Z,51.20
2023-03-29T06:04:33.767Z,55.04
2023-03-29T06:08:04.594Z,58.93
2023-03-29T06:11:28.057Z,60.14
2023-03-29T06:14:42.538Z,60.57
2023-03-29T06:17:58.450Z,63.73
2023-03-29T06:21:04.403Z,63.82
2023-03-29T06:24:10.615Z,60.25
2023-03-29T06:27:20.695Z,54.10
2023-03-29T06:30:26.804Z,52.64
2023-03-29T06:33:34.600Z,55.15
2023-03-29T06:36:43.437Z,53.25
2023-03-29T06:39:54.249Z,58.25
2023-03-29T06:43:05.306Z,59.37
2023-03-29T06:46:24.551Z,61.16
2023-03-29T06:49:57.030Z,62.07
2023-03-29T06:53:09.134Z,62.97
2023-03-29T06:56:14.798Z,58.60
2023-03-29T06:59:22.566Z,53.27
2023-03-29T07:02:34.739Z,54.28
2023-03-29T07:05:51.882Z,53.47
2023-03-29T07:09:01.792Z,57.07
2023-03-29T07:12:36.624Z,56.27
2023-03-29T07:15:45.200Z,58.55
2023-03-29T07:19:03.874Z,57.59
2023-03-29T07:22:35.486Z,60.90
2023-03-29T07:25:43.659Z,62.33
2023-03-29T07:28:50.456Z,65.25
2023-03-29T07:31:56.602Z,58.19
2023-03-29T07:35:21.299Z,55.23
2023-03-29T07:38:27.362Z,56.08
2023-03-29T07:41:37.963Z,58.20
2023-03-29T07:44:51.871Z,58.85
2023-03-29T07:48:00.727Z,59.20
2023-03-29T07:51:13.332Z,59.98
2023-03-29T07:54:24.164Z,59.89
2023-03-29T07:57:35.090Z,60.50
2023-03-29T08:00:44.969Z,60.32
2023-03-29T08:04:25.044Z,59.62
2023-03-29T08:07:52.085Z,59.64
2023-03-29T08:11:21.266Z,59.31
2023-03-29T08:14:38.888Z,59.15
2023-03-29T08:18:03.678Z,59.06
2023-03-29T08:21:11.029Z,58.75
2023-03-29T08:24:23.724Z,58.15
2023-03-29T08:27:38.234Z,56.91
2023-03-29T08:30:48.297Z,56.76
2023-03-29T08:34:23.939Z,57.01
2023-03-29T08:37:39.357Z,56.60
2023-03-29T08:40:48.659Z,55.60
2023-03-29T08:44:11.434Z,56.18
2023-03-29T08:47:46.806Z,55.66
2023-03-29T08:50:54.297Z,53.92
2023-03-29T08:54:01.832Z,53.12
2023-03-29T08:59:30.692Z,51.92
2023-03-29T09:03:04.689Z,52.07
2023-03-29T09:06:18.375Z,51.95
2023-03-29T09:09:45.517Z,51.65
2023-03-29T09:14:09.666Z,51.92
2023-03-29T09:18:02.750Z,51.76
2023-03-29T09:21:33.227Z,51.60
2023-03-29T09:25:05.545Z,51.48
2023-03-29T09:28:57.521Z,51.59
2023-03-29T09:32:24.193Z,51.58
2023-03-29T09:35:54.311Z,50.55
2023-03-29T09:39:21.179Z,50.17
2023-03-29T09:42:48.631Z,49.69
2023-03-29T09:46:18.784Z,49.74
2023-03-29T09:49:48.433Z,48.75
2023-03-29T09:53:16.339Z,48.59
2023-03-29T09:56:43.510Z,48.59
2023-03-29T10:00:31.094Z,48.06
2023-03-29T10:03:58.366Z,46.21
2023-03-29T10:07:24.067Z,47.76
2023-03-29T10:10:50.118Z,48.94
2023-03-29T10:14:20.683Z,47.75
2023-03-29T10:17:46.569Z,48.03
2023-03-29T10:21:15.273Z,47.37
2023-03-29T10:24:41.191Z,46.61
2023-03-29T10:28:12.094Z,47.10
2023-03-29T10:31:41.925Z,46.52
2023-03-29T10:35:10.796Z,45.91
2023-03-29T10:38:38.198Z,45.23
2023-03-29T10:42:05.422Z,44.78
2023-03-29T10:45:32.829Z,44.54
2023-03-29T10:49:00.026Z,44.67
2023-03-29T10:52:42.043Z,44.75
2023-03-29T10:56:24.561Z,44.12
2023-03-29T11:00:35.758Z,43.99
2023-03-29T11:04:10.095Z,42.71
2023-03-29T11:07:40.101Z,43.08
2023-03-29T11:11:14.289Z,43.63
2023-03-29T11:14:47.489Z,42.36
2023-03-29T11:18:27.778Z,42.51
2023-03-29T11:21:57.336Z,42.40
2023-03-29T11:25:30.302Z,42.64
2023-03-29T11:28:58.605Z,41.78
2023-03-29T11:32:27.791Z,41.41
2023-03-29T11:35:56.321Z,40.94
2023-03-29T11:39:28.475Z,41.39
2023-03-29T11:42:56.977Z,41.08
2023-03-29T11:46:26.451Z,41.62
2023-03-29T11:49:56.293Z,39.42
2023-03-29T11:53:28.096Z,39.78
2023-03-29T11:56:57.726Z,40.00
2023-03-29T12:00:26.120Z,40.28
2023-03-29T12:03:54.517Z,39.67
2023-03-29T12:07:25.321Z,38.32
2023-03-29T12:10:54.206Z,38.48
2023-03-29T12:14:26.085Z,39.25
2023-03-29T12:17:58.153Z,40.05
2023-03-29T12:21:24.933Z,39.44
2023-03-29T12:24:36.891Z,39.19
2023-03-29T12:27:49.572Z,38.97
2023-03-29T12:31:07.117Z,38.89
2023-03-29T12:34:27.232Z,39.09
2023-03-29T12:37:47.051Z,39.08
2023-03-29T12:41:16.741Z,39.51
2023-03-29T12:44:42.853Z,39.64
2023-03-29T12:47:59.142Z,40.06
2023-03-29T12:51:10.225Z,40.23
2023-03-29T12:54:21.433Z,39.39
2023-03-29T12:57:30.107Z,39.22
2023-03-29T13:00:44.789Z,39.65
2023-03-29T13:03:52.173Z,39.81
2023-03-29T13:07:04.967Z,39.25
2023-03-29T13:10:11.627Z,38.21
2023-03-29T13:13:28.710Z,38.25
2023-03-29T13:16:44.126Z,37.94
2023-03-29T13:19:53.932Z,38.13
2023-03-29T13:23:10.808Z,38.19
2023-03-29T13:26:23.434Z,38.88
2023-03-29T13:29:48.081Z,39.34
2023-03-29T13:33:13.077Z,39.76
2023-03-29T13:36:25.778Z,39.50
2023-03-29T13:39:37.779Z,38.35
2023-03-29T13:42:43.656Z,37.44
2023-03-29T13:46:17.867Z,37.63
2023-03-29T13:49:25.484Z,37.92
2023-03-29T13:52:32.045Z,38.21
2023-03-29T13:55:52.082Z,37.33
2023-03-29T13:59:04.265Z,37.65
2023-03-29T14:02:18.761Z,37.84
2023-03-29T14:05:26.044Z,38.20
2023-03-29T14:08:40.439Z,38.90
2023-03-29T14:11:47.761Z,39.24
2023-03-29T14:14:59.275Z,39.45
2023-03-29T14:18:12.363Z,39.40
2023-03-29T14:21:21.756Z,39.56
2023-03-29T14:24:36.513Z,40.48
2023-03-29T14:27:42.620Z,39.64
2023-03-29T14:31:17.896Z,39.32
2023-03-29T14:34:24.020Z,40.03
2023-03-29T14:37:30.187Z,40.13
2023-03-29T14:40:35.827Z,39.62
2023-03-29T14:43:51.624Z,39.45
2023-03-29T14:47:19.767Z,39.77
2023-03-29T14:50:46.988Z,40.69
2023-03-29T14:53:58.756Z,40.46
2023-03-29T14:57:08.368Z,39.97
2023-03-29T15:00:20.049Z,39.82
2023-03-29T15:03:27.379Z,39.24
2023-03-29T15:06:34.061Z,39.12
2023-03-29T15:09:51.128Z,39.41
2023-03-29T15:12:57.322Z,39.90
2023-03-29T15:16:10.512Z,40.39
2023-03-29T15:19:20.825Z,40.88
2023-03-29T15:22:38.524Z,41.46
2023-03-29T15:25:49.470Z,41.82
2023-03-29T15:29:03.237Z,42.15
2023-03-29T15:32:11.710Z,42.48
2023-03-29T15:35:24.696Z,42.61
2023-03-29T15:38:40.905Z,42.89
2023-03-29T15:41:52.415Z,43.09
2023-03-29T15:45:19.245Z,43.17
2023-03-29T15:48:46.531Z,43.43
2023-03-29T15:51:56.741Z,43.55
2023-03-29T15:55:02.587Z,43.79
2023-03-29T15:58:08.481Z,44.13
2023-03-29T16:01:34.134Z,44.35
2023-03-29T16:04:39.843Z,44.61
2023-03-29T16:07:48.114Z,44.83
2023-03-29T16:10:53.594Z,44.84
2023-03-29T16:14:02.395Z,45.14
2023-03-29T16:17:07.827Z,45.49
2023-03-29T16:20:20.205Z,45.71
2023-03-29T16:23:31.225Z,46.25
2023-03-29T16:26:40.717Z,46.82
2023-03-29T16:29:48.952Z,47.16
2023-03-29T16:32:54.621Z,47.41
2023-03-29T16:36:00.641Z,47.68
2023-03-29T16:39:10.622Z,47.85
2023-03-29T16:42:16.687Z,48.29
2023-03-29T16:45:25.450Z,48.70
2023-03-29T16:48:31.096Z,49.01
2023-03-29T16:51:39.931Z,49.11
2023-03-29T16:54:46.150Z,49.47
2023-03-29T16:57:52.014Z,49.79
2023-03-29T17:01:14.873Z,49.91
2023-03-29T17:04:27.905Z,50.21
2023-03-29T17:07:44.953Z,50.49
2023-03-29T17:10:54.129Z,50.76
2023-03-29T17:14:00.676Z,50.81
2023-03-29T17:17:15.488Z,51.42
2023-03-29T17:20:41.460Z,51.69
2023-03-29T17:23:52.580Z,51.74
2023-03-29T17:27:01.173Z,51.75
2023-03-29T17:30:07.979Z,51.64
2023-03-29T17:33:13.795Z,51.92
2023-03-29T17:36:24.328Z,51.82
2023-03-29T17:39:37.278Z,52.06
2023-03-29T17:42:48.254Z,52.38
2023-03-29T17:45:56.873Z,52.18
2023-03-29T17:49:04.126Z,52.20
2023-03-29T17:52:12.596Z,52.45
2023-03-29T17:55:18.776Z,52.63
2023-03-29T17:58:27.189Z,52.82
2023-03-29T18:01:41.829Z,53.12
2023-03-29T18:04:54.754Z,53.15
2023-03-29T18:08:00.280Z,53.16
2023-03-29T18:11:11.598Z,53.36
2023-03-29T18:14:17.622Z,53.48
2023-03-29T18:17:24.288Z,53.44
2023-03-29T18:20:49.581Z,53.52
2023-03-29T18:23:57.042Z,53.50
2023-03-29T18:27:12.396Z,53.60
2023-03-29T18:30:18.168Z,53.77
2023-03-29T18:33:27.224Z,54.05
2023-03-29T18:36:35.842Z,54.52
2023-03-29T18:39:43.152Z,54.44
2023-03-29T18:42:48.636Z,54.82
2023-03-29T18:45:54.047Z,55.16
2023-03-29T18:49:03.388Z,55.32
2023-03-29T18:52:11.388Z,55.42
2023-03-29T18:55:17.135Z,55.22
2023-03-29T18:58:24.186Z,55.46
2023-03-29T19:01:32.095Z,55.78
2023-03-29T19:04:37.682Z,55.92
2023-03-29T19:07:46.988Z,56.38
2023-03-29T19:10:53.132Z,56.51
2023-03-29T19:13:58.681Z,57.56
2023-03-29T19:17:06.861Z,58.10
2023-03-29T19:20:13.647Z,58.37
2023-03-29T19:23:25.190Z,58.47
2023-03-29T19:26:34.226Z,58.91
2023-03-29T19:29:39.748Z,59.25
2023-03-29T19:32:48.340Z,59.36
2023-03-29T19:35:54.056Z,59.10
2023-03-29T19:39:01.967Z,59.54
2023-03-29T19:42:07.860Z,59.69
2023-03-29T19:45:13.506Z,59.81
2023-03-29T19:48:24.488Z,60.43
2023-03-29T19:51:32.875Z,60.78
2023-03-29T19:54:38.458Z,60.96
2023-03-29T19:57:44.090Z,61.26
2023-03-29T20:00:50.757Z,60.96
2023-03-29T20:03:56.376Z,61.27
2023-03-29T20:07:02.412Z,61.37
2023-03-29T20:10:09.869Z,61.39
2023-03-29T20:13:27.772Z,61.46
2023-03-29T20:16:44.185Z,61.68
2023-03-29T20:19:54.019Z,61.87
2023-03-29T20:23:05.252Z,62.59
2023-03-29T20:26:11.717Z,61.36
2023-03-29T20:29:20.146Z,56.73
2023-03-29T20:32:25.921Z,56.47
2023-03-29T20:35:42.533Z,58.00
2023-03-29T20:38:51.705Z,58.43
2023-03-29T20:42:06.611Z,59.54
2023-03-29T20:45:19.630Z,60.40
2023-03-29T20:48:31.609Z,60.27
2023-03-29T20:51:40.464Z,60.63
2023-03-29T20:54:55.162Z,61.26
2023-03-29T20:58:10.289Z,61.48
2023-03-29T21:01:26.166Z,61.78
2023-03-29T21:04:42.186Z,61.72
2023-03-29T21:07:55.683Z,61.63
2023-03-29T21:11:01.472Z,61.61
2023-03-29T21:14:10.422Z,61.84
2023-03-29T21:17:16.107Z,61.71
2023-03-29T21:20:24.771Z,62.85
2023-03-29T21:23:30.523Z,66.61
2023-03-29T21:26:41.220Z,64.54
2023-03-29T21:29:50.413Z,64.79
2023-03-29T21:32:55.950Z,63.42
2023-03-29T21:36:04.403Z,60.36
2023-03-29T21:39:09.993Z,55.66
2023-03-29T21:42:18.647Z,53.92
2023-03-29T21:45:27.252Z,54.10
2023-03-29T21:48:32.943Z,54.54
2023-03-29T21:51:41.618Z,55.07
2023-03-29T21:54:47.227Z,56.95
2023-03-29T21:57:55.049Z,57.62
2023-03-29T22:01:03.708Z,59.01
2023-03-29T22:04:09.447Z,59.39
2023-03-29T22:07:15.132Z,60.67
2023-03-29T22:10:33.079Z,60.61
2023-03-29T22:13:38.884Z,61.30
2023-03-29T22:16:45.667Z,61.57
2023-03-29T22:19:51.805Z,65.26
2023-03-29T22:22:57.399Z,66.40
2023-03-29T22:26:06.947Z,66.13
2023-03-29T22:29:12.480Z,65.91
2023-03-29T22:32:18.281Z,63.54
2023-03-29T22:35:24.124Z,60.69
2023-03-29T22:38:29.924Z,56.79
2023-03-29T22:41:35.551Z,53.38
2023-03-29T22:44:43.643Z,53.11
2023-03-29T22:47:56.669Z,53.94
2023-03-29T22:51:07.089Z,56.57
2023-03-29T22:54:12.731Z,55.70
2023-03-29T22:57:21.731Z,57.69
2023-03-29T23:00:27.964Z,58.95
2023-03-29T23:03:33.580Z,59.97
2023-03-29T23:06:42.261Z,60.58
2023-03-29T23:09:47.886Z,61.25
2023-03-29T23:13:05.696Z,61.67
2023-03-29T23:16:11.812Z,64.29
2023-03-29T23:19:19.522Z,66.97
2023-03-29T23:22:25.040Z,67.37
2023-03-29T23:25:31.556Z,64.53
2023-03-29T23:28:41.137Z,61.84
2023-03-29T23:31:47.772Z,58.34
2023-03-29T23:34:56.298Z,53.78
2023-03-29T23:38:01.743Z,53.11
2023-03-29T23:41:13.155Z,53.05
2023-03-29T23:44:39.527Z,53.48
2023-03-29T23:47:47.465Z,54.87
2023-03-29T23:51:13.230Z,56.57
2023-03-29T23:54:18.683Z,57.05
2023-03-29T23:57:27.075Z,58.57
